Time;durP1;ratioP1;P1;durP2;ratioP2;P2;SDS_P1;SDS_P2;PMS_P1;PMS_P2;Temp;Humidity;BMP_temperature;BMP_pressure;BME280_temperature;BME280_humidity;BME280_pressure;Samples;Min_cycle;Max_cycle;Signal;HPM_P1;HPM_P2
2022/12/28 00:01:11;;;;;;;11.10;7.97;;;5.00;76.70;4.60;97204.00;;;;5052566;28;20298;-86
2022/12/28 00:03:40;;;;;;;12.00;7.50;;;5.00;76.70;4.60;97197.00;;;;5057062;28;20230;-86
2022/12/28 00:06:08;;;;;;;12.57;8.03;;;5.00;76.60;4.60;97191.00;;;;5056393;28;20613;-85
2022/12/28 00:08:36;;;;;;;15.63;8.17;;;5.00;76.60;4.60;97188.00;;;;5056414;28;20303;-86
2022/12/28 00:11:05;;;;;;;13.60;8.53;;;5.00;76.70;4.60;97188.00;;;;5055774;28;20290;-86
2022/12/28 00:13:35;;;;;;;11.60;8.73;;;5.00;76.70;4.60;97192.00;;;;5058174;28;20319;-85
2022/12/28 00:16:07;;;;;;;12.60;9.00;;;5.00;76.70;4.60;97194.00;;;;5055279;28;20252;-85
2022/12/28 00:18:35;;;;;;;12.50;8.33;;;5.00;76.60;4.60;97180.00;;;;5055089;28;20196;-86
2022/12/28 00:21:05;;;;;;;12.47;8.37;;;5.00;76.60;4.60;97189.00;;;;5056270;28;20201;-86
2022/12/28 00:23:32;;;;;;;11.07;8.27;;;5.00;76.80;4.50;97186.00;;;;5055617;28;20224;-86
2022/12/28 00:26:06;;;;;;;10.77;8.17;;;4.90;76.90;4.60;97185.00;;;;5056247;28;20295;-85
2022/12/28 00:28:34;;;;;;;14.40;9.23;;;5.00;76.70;4.50;97189.00;;;;5054965;28;20196;-86
2022/12/28 00:31:02;;;;;;;13.60;9.37;;;4.90;76.70;4.50;97176.00;;;;5056664;28;20199;-85
2022/12/28 00:33:29;;;;;;;13.83;8.73;;;4.90;76.70;4.50;97182.00;;;;5056286;28;20636;-85
2022/12/28 00:35:59;;;;;;;12.50;8.30;;;4.90;76.80;4.50;97186.00;;;;5054310;28;20255;-85
2022/12/28 00:38:30;;;;;;;13.47;8.53;;;4.90;76.70;4.50;97186.00;;;;5055044;28;20574;-86
2022/12/28 00:40:57;;;;;;;13.47;8.83;;;4.90;76.70;4.50;97189.00;;;;5056126;28;20208;-86
2022/12/28 00:43:26;;;;;;;14.60;9.30;;;4.90;76.60;4.50;97192.00;;;;5058294;28;20282;-85
2022/12/28 00:45:54;;;;;;;12.57;9.33;;;4.90;76.60;4.50;97183.00;;;;5057246;28;20288;-86
2022/12/28 00:48:21;;;;;;;11.47;8.40;;;4.80;76.60;4.40;97183.00;;;;5060367;28;20208;-86
2022/12/28 00:50:49;;;;;;;16.83;9.83;;;4.90;76.70;4.40;97181.00;;;;5060263;28;20745;-85
2022/12/28 00:53:17;;;;;;;12.97;8.50;;;4.80;76.50;4.40;97176.00;;;;5060943;28;20650;-86
2022/12/28 00:55:45;;;;;;;14.43;8.20;;;4.80;76.60;4.40;97171.00;;;;5059936;28;20315;-85
2022/12/28 00:58:13;;;;;;;13.50;8.93;;;4.80;76.70;4.40;97163.00;;;;5060440;28;20212;-86
2022/12/28 01:00:40;;;;;;;16.10;9.93;;;4.80;76.70;4.40;97171.00;;;;5058164;28;20212;-86
2022/12/28 01:03:07;;;;;;;13.87;9.63;;;4.80;77.00;4.40;97163.00;;;;5058612;28;20234;-86
2022/12/28 01:05:38;;;;;;;15.23;10.37;;;4.80;77.00;4.40;97163.00;;;;5060310;28;20208;-86
2022/12/28 01:08:05;;;;;;;15.80;9.63;;;4.80;77.00;4.40;97169.00;;;;5058217;28;20287;-86
2022/12/28 01:10:32;;;;;;;15.87;10.40;;;4.80;76.90;4.40;97172.00;;;;5060529;28;20303;-86
2022/12/28 01:13:01;;;;;;;13.43;9.70;;;4.80;76.80;4.40;97165.00;;;;5058171;28;20550;-85
2022/12/28 01:15:28;;;;;;;16.93;10.27;;;4.80;77.00;4.40;97174.00;;;;5058187;28;20329;-86
2022/12/28 01:17:55;;;;;;;12.57;9.03;;;4.80;76.90;4.40;97166.00;;;;5059932;28;20228;-86
2022/12/28 01:20:22;;;;;;;15.80;10.00;;;4.70;77.00;4.40;97149.00;;;;5060415;28;20214;-86
2022/12/28 01:22:49;;;;;;;16.27;9.17;;;4.70;77.10;4.40;97157.00;;;;5060877;28;20205;-85
2022/12/28 01:25:17;;;;;;;13.77;9.20;;;4.70;77.30;4.40;97155.00;;;;5061162;28;20218;-86
2022/12/28 01:27:44;;;;;;;14.57;9.03;;;4.80;77.60;4.40;97160.00;;;;5060937;28;20223;-85
2022/12/28 01:30:14;;;;;;;15.60;8.60;;;4.80;77.50;4.50;97160.00;;;;5059358;28;20289;-86
2022/12/28 01:32:42;;;;;;;15.10;8.77;;;4.80;77.40;4.50;97156.00;;;;5058957;28;20228;-86
2022/12/28 01:35:09;;;;;;;15.37;8.77;;;4.80;77.50;4.50;97160.00;;;;5058469;28;20953;-86
2022/12/28 01:37:36;;;;;;;13.77;8.67;;;4.80;77.50;4.50;97162.00;;;;5061803;28;20228;-86
2022/12/28 01:40:05;;;;;;;12.93;8.73;;;4.80;77.50;4.50;97169.00;;;;5060764;28;20287;-86
2022/12/28 01:42:32;;;;;;;10.87;8.07;;;4.80;77.50;4.50;97171.00;;;;5060632;28;20205;-86
2022/12/28 01:45:19;;;;;;;11.63;7.97;;;4.80;77.30;4.50;97158.00;;;;5066616;28;20296;-86
2022/12/28 01:47:49;;;;;;;12.13;6.63;;;4.90;77.30;4.50;97161.00;;;;5074135;28;20469;-86
2022/12/28 01:50:23;;;;;;;12.23;7.10;;;4.90;77.50;4.50;97163.00;;;;5075330;28;20196;-86
2022/12/28 01:52:56;;;;;;;13.60;7.20;;;4.90;77.50;4.50;97157.00;;;;5074543;28;20204;-86
2022/12/28 01:55:27;;;;;;;9.93;6.80;;;4.90;77.50;4.50;97154.00;;;;5071680;28;20295;-87
2022/12/28 01:58:01;;;;;;;11.60;6.60;;;4.90;77.50;4.60;97143.00;;;;5063980;28;20270;-86
2022/12/28 02:00:30;;;;;;;10.03;6.73;;;4.90;77.60;4.60;97136.00;;;;5061448;28;20287;-86
2022/12/28 02:03:05;;;;;;;9.77;6.30;;;4.90;77.70;4.60;97128.00;;;;5058065;28;20303;-86
2022/12/28 02:05:38;;;;;;;8.33;6.23;;;4.90;77.90;4.60;97120.00;;;;5058267;28;20287;-86
2022/12/28 02:08:12;;;;;;;8.37;6.27;;;4.90;78.10;4.60;97119.00;;;;5056824;28;20651;-87
2022/12/28 02:10:42;;;;;;;6.97;5.97;;;4.90;78.10;4.60;97115.00;;;;5056109;28;20239;-86
2022/12/28 02:13:10;;;;;;;6.70;5.90;;;5.00;78.10;4.70;97110.00;;;;5055554;28;20320;-86
2022/12/28 02:15:38;;;;;;;10.50;6.17;;;5.00;78.10;4.70;97106.00;;;;5058023;28;20287;-86
2022/12/28 02:18:06;;;;;;;8.53;6.30;;;5.00;78.10;4.70;97097.00;;;;5059014;28;20299;-86
2022/12/28 02:20:45;;;;;;;9.67;5.83;;;5.00;78.10;4.70;97100.00;;;;5058758;28;20304;-86
2022/12/28 02:23:36;;;;;;;9.57;6.30;;;5.00;78.10;4.70;97090.00;;;;5058055;28;20224;-86
2022/12/28 02:26:39;;;;;;;9.37;6.30;;;5.00;78.00;4.70;97094.00;;;;5057386;28;20200;-86
2022/12/28 02:29:37;;;;;;;8.80;5.90;;;5.00;78.00;4.70;97097.00;;;;5054108;28;20214;-86
2022/12/28 02:32:22;;;;;;;6.63;5.40;;;5.10;77.70;4.70;97081.00;;;;5060059;28;20212;-86
2022/12/28 02:35:01;;;;;;;8.73;5.77;;;5.10;77.90;4.70;97081.00;;;;5056670;28;20339;-86
2022/12/28 02:37:36;;;;;;;9.10;6.10;;;5.10;77.90;4.70;97071.00;;;;5058077;28;20283;-86
2022/12/28 02:40:09;;;;;;;8.43;5.67;;;5.00;78.50;4.60;97077.00;;;;5059337;28;20320;-86
2022/12/28 02:42:38;;;;;;;8.50;5.70;;;5.00;77.80;4.60;97084.00;;;;5060306;28;20223;-86
2022/12/28 02:51:20;;;;;;;7.07;5.23;;;5.00;77.70;4.60;97077.00;;;;5057400;28;20246;-86
2022/12/28 02:57:46;;;;;;;7.83;5.23;;;5.00;77.40;4.60;97064.00;;;;5056924;28;20212;-86
2022/12/28 03:00:21;;;;;;;6.77;5.43;;;5.00;77.60;4.60;97058.00;;;;5058917;28;20196;-86
2022/12/28 03:03:16;;;;;;;8.43;5.07;;;5.00;77.70;4.60;97055.00;;;;5056455;28;20279;-86
2022/12/28 03:08:53;;;;;;;8.53;4.60;;;5.00;77.90;4.60;97052.00;;;;5056030;28;20581;-86
2022/12/28 03:11:28;;;;;;;9.97;5.73;;;5.00;78.10;4.60;97049.00;;;;5058738;28;20290;-86
2022/12/28 03:14:04;;;;;;;7.73;4.90;;;5.00;78.20;4.60;97042.00;;;;5055928;28;20309;-86
2022/12/28 03:25:41;;;;;;;8.03;6.00;;;5.00;78.00;4.60;97032.00;;;;5058136;28;20223;-86
2022/12/28 03:31:06;;;;;;;6.30;4.70;;;5.00;78.10;4.60;97029.00;;;;5053241;28;20284;-86
2022/12/28 03:33:37;;;;;;;5.27;4.73;;;5.00;78.00;4.60;97022.00;;;;5054758;28;20239;-86
2022/12/28 03:36:20;;;;;;;7.40;5.00;;;5.00;77.90;4.60;97016.00;;;;5054235;28;20231;-86
2022/12/28 03:38:58;;;;;;;6.93;4.63;;;5.00;77.90;4.60;97013.00;;;;5055219;28;20453;-86
2022/12/28 03:41:35;;;;;;;5.60;5.00;;;5.00;78.00;4.60;97010.00;;;;5055252;28;20257;-86
2022/12/28 03:44:11;;;;;;;4.83;4.37;;;5.00;77.90;4.60;97005.00;;;;5057195;28;20216;-87
2022/12/28 03:46:49;;;;;;;12.77;5.43;;;5.00;77.80;4.60;97003.00;;;;5058595;28;20200;-86
2022/12/28 03:49:18;;;;;;;4.87;4.20;;;5.00;77.90;4.60;96988.00;;;;5056861;28;20216;-86
2022/12/28 03:51:47;;;;;;;7.10;4.77;;;5.00;78.00;4.60;96977.00;;;;5057908;28;20223;-86
2022/12/28 03:54:16;;;;;;;9.20;4.33;;;5.00;78.00;4.60;96976.00;;;;5055818;28;20322;-86
2022/12/28 03:56:47;;;;;;;7.73;5.20;;;5.00;78.10;4.70;96980.00;;;;5055370;28;20286;-86
2022/12/28 03:59:15;;;;;;;6.13;4.30;;;5.00;78.20;4.60;96977.00;;;;5056193;28;20349;-86
2022/12/28 04:01:43;;;;;;;9.10;4.47;;;5.00;78.30;4.70;96981.00;;;;5057321;28;20284;-86
2022/12/28 04:04:11;;;;;;;7.70;4.50;;;5.00;78.40;4.70;96983.00;;;;5058029;28;20247;-86
2022/12/28 04:06:40;;;;;;;6.67;4.33;;;5.10;78.30;4.70;96986.00;;;;5057714;28;20301;-86
2022/12/28 04:09:07;;;;;;;5.40;4.57;;;5.10;78.30;4.70;96979.00;;;;5058253;28;20297;-86
2022/12/28 04:11:35;;;;;;;5.30;4.80;;;5.10;78.30;4.70;96972.00;;;;5055022;28;20232;-86
2022/12/28 04:14:04;;;;;;;4.83;4.40;;;5.10;78.20;4.70;96972.00;;;;5057389;28;20303;-86
2022/12/28 04:16:31;;;;;;;6.30;4.73;;;5.10;78.20;4.70;96958.00;;;;5057349;28;20229;-86
2022/12/28 04:18:58;;;;;;;8.60;4.90;;;5.10;78.20;4.70;96965.00;;;;5059200;28;20207;-86
2022/12/28 04:21:25;;;;;;;4.83;4.30;;;5.10;78.20;4.70;96967.00;;;;5059661;28;20196;-86
2022/12/28 04:23:54;;;;;;;6.63;4.73;;;5.10;78.20;4.80;96960.00;;;;5061308;28;20248;-86
2022/12/28 04:26:21;;;;;;;8.03;5.07;;;5.10;78.30;4.80;96967.00;;;;5061623;28;20231;-86
2022/12/28 04:28:48;;;;;;;7.17;4.50;;;5.10;78.30;4.80;96970.00;;;;5060157;28;20287;-86
2022/12/28 04:31:15;;;;;;;6.17;4.80;;;5.10;78.50;4.80;96964.00;;;;5059256;28;20723;-86
2022/12/28 04:33:43;;;;;;;6.20;4.20;;;5.10;78.60;4.80;96958.00;;;;5060379;28;20224;-86
2022/12/28 04:36:15;;;;;;;8.93;4.40;;;5.20;78.70;4.90;96961.00;;;;5060863;28;20320;-86
2022/12/28 04:38:42;;;;;;;3.90;3.50;;;5.20;78.60;4.90;96961.00;;;;5061241;28;20250;-86
2022/12/28 04:41:12;;;;;;;4.23;3.83;;;5.20;78.70;4.90;96963.00;;;;5061558;28;20664;-87
2022/12/28 04:43:39;;;;;;;5.27;3.87;;;5.20;78.70;4.90;96956.00;;;;5059027;28;20282;-86
2022/12/28 04:46:11;;;;;;;6.00;4.00;;;5.20;78.80;4.90;96960.00;;;;5060381;28;20668;-87
2022/12/28 04:48:39;;;;;;;4.47;4.00;;;5.30;79.00;5.00;96959.00;;;;5059098;28;20627;-86
2022/12/28 04:51:08;;;;;;;4.13;3.73;;;5.30;79.00;5.00;96957.00;;;;5059901;28;20203;-87
2022/12/28 04:53:39;;;;;;;5.87;3.60;;;5.30;79.10;5.00;96969.00;;;;5059633;28;20635;-87
2022/12/28 04:56:10;;;;;;;7.43;3.63;;;5.40;79.80;5.10;96972.00;;;;5060088;28;20312;-87
2022/12/28 04:58:37;;;;;;;4.23;3.63;;;5.30;79.10;5.10;96974.00;;;;5060242;28;20727;-86
2022/12/28 05:01:06;;;;;;;3.83;3.40;;;5.40;79.30;5.10;96966.00;;;;5059031;28;20218;-86
2022/12/28 05:03:33;;;;;;;4.10;3.30;;;5.40;79.20;5.10;96962.00;;;;5056802;28;20307;-87
2022/12/28 05:06:02;;;;;;;4.63;3.17;;;5.40;79.00;5.10;96963.00;;;;5058518;28;20334;-87
2022/12/28 05:08:31;;;;;;;7.67;3.70;;;5.40;78.90;5.10;96962.00;;;;5059042;28;20585;-87
2022/12/28 05:11:00;;;;;;;4.30;3.90;;;5.40;78.80;5.10;96947.00;;;;5059861;28;20203;-87
2022/12/28 05:13:29;;;;;;;3.70;3.40;;;5.40;78.70;5.10;96960.00;;;;5057409;28;20594;-87
2022/12/28 05:16:00;;;;;;;4.23;3.53;;;5.40;78.70;5.10;96956.00;;;;5060465;28;20231;-87
2022/12/28 05:18:27;;;;;;;4.73;3.00;;;5.40;78.50;5.10;96953.00;;;;5061373;28;20283;-86
2022/12/28 05:21:00;;;;;;;6.07;3.70;;;5.40;78.50;5.10;96956.00;;;;5058558;28;20664;-87
2022/12/28 05:23:29;;;;;;;4.10;3.50;;;5.40;78.50;5.10;96957.00;;;;5058772;28;20236;-87
2022/12/28 05:25:57;;;;;;;3.97;3.47;;;5.40;78.60;5.10;96956.00;;;;5059654;28;20218;-86
2022/12/28 05:28:25;;;;;;;3.30;3.00;;;5.40;78.50;5.10;96942.00;;;;5061450;28;20238;-86
2022/12/28 05:30:59;;;;;;;9.93;3.47;;;5.40;78.60;5.10;96942.00;;;;5059758;28;20663;-87
2022/12/28 05:33:26;;;;;;;5.03;3.63;;;5.40;78.70;5.10;96936.00;;;;5061024;28;20306;-86
2022/12/28 05:35:53;;;;;;;5.43;3.53;;;5.40;78.80;5.20;96928.00;;;;5061857;28;20239;-86
2022/12/28 05:38:20;;;;;;;7.53;3.60;;;5.50;79.10;5.20;96917.00;;;;5057926;28;20250;-86
2022/12/28 05:40:48;;;;;;;3.63;3.33;;;5.50;79.20;5.20;96917.00;;;;5064697;28;20235;-87
2022/12/28 05:43:15;;;;;;;4.43;3.67;;;5.50;79.30;5.30;96928.00;;;;5068570;28;20242;-87
2022/12/28 05:45:42;;;;;;;7.43;3.60;;;5.60;79.40;5.30;96929.00;;;;5064206;28;20264;-86
2022/12/28 05:48:10;;;;;;;5.80;3.10;;;5.50;79.30;5.30;96919.00;;;;5064139;28;20204;-87
2022/12/28 05:50:38;;;;;;;4.07;3.67;;;5.60;79.40;5.40;96934.00;;;;5063615;28;20204;-87
2022/12/28 05:53:05;;;;;;;4.80;3.67;;;5.60;79.40;5.40;96928.00;;;;5066426;28;20283;-86
2022/12/28 05:55:32;;;;;;;5.07;3.10;;;5.60;79.50;5.40;96931.00;;;;5062818;28;20208;-87
2022/12/28 05:57:59;;;;;;;4.47;3.50;;;5.70;79.60;5.50;96939.00;;;;5059806;28;20238;-87
2022/12/28 06:00:27;;;;;;;6.07;3.60;;;5.70;79.70;5.50;96940.00;;;;5060480;28;20294;-87
2022/12/28 06:02:55;;;;;;;4.30;3.60;;;5.70;79.80;5.50;96945.00;;;;5059388;28;20687;-87
2022/12/28 06:05:24;;;;;;;4.80;3.20;;;5.70;79.80;5.60;96932.00;;;;5056975;28;20205;-86
2022/12/28 06:07:52;;;;;;;7.70;3.77;;;5.80;79.80;5.60;96937.00;;;;5055985;28;20318;-87
2022/12/28 06:10:19;;;;;;;3.80;3.30;;;5.80;79.90;5.60;96930.00;;;;5058449;28;20263;-86
2022/12/28 06:12:46;;;;;;;4.07;3.03;;;5.80;79.90;5.70;96930.00;;;;5058335;28;20282;-86
2022/12/28 06:15:13;;;;;;;4.93;3.57;;;5.90;80.00;5.70;96921.00;;;;5058551;28;20214;-87
2022/12/28 06:17:40;;;;;;;5.33;3.40;;;5.90;80.10;5.70;96917.00;;;;5055407;28;20252;-87
2022/12/28 06:20:09;;;;;;;5.63;3.13;;;6.00;80.20;5.80;96926.00;;;;5057502;28;20642;-86
2022/12/28 06:22:37;;;;;;;10.17;3.80;;;6.00;80.20;5.80;96934.00;;;;5056143;28;20674;-87
2022/12/28 06:25:05;;;;;;;8.03;4.27;;;6.00;80.10;5.90;96933.00;;;;5057811;28;20192;-86
2022/12/28 06:27:32;;;;;;;13.77;4.20;;;6.00;80.10;5.90;96932.00;;;;5057581;28;20251;-86
2022/12/28 06:30:00;;;;;;;4.10;3.70;;;6.10;80.10;5.90;96927.00;;;;5055707;28;20286;-86
2022/12/28 06:32:27;;;;;;;5.20;3.43;;;6.10;80.20;6.00;96927.00;;;;5056755;28;20201;-87
2022/12/28 06:34:54;;;;;;;6.73;3.20;;;6.10;80.20;6.00;96926.00;;;;5054783;28;20266;-87
2022/12/28 06:37:21;;;;;;;6.07;3.33;;;6.20;80.30;6.00;96920.00;;;;5058174;28;20307;-87
2022/12/28 06:39:49;;;;;;;14.33;3.60;;;6.20;80.30;6.10;96929.00;;;;5058067;28;20258;-87
2022/12/28 06:42:16;;;;;;;7.20;3.67;;;6.30;80.40;6.10;96926.00;;;;5056831;28;20622;-87
2022/12/28 06:44:43;;;;;;;3.80;3.20;;;6.30;80.40;6.10;96932.00;;;;5056970;28;20304;-87
2022/12/28 06:47:10;;;;;;;7.00;3.23;;;6.30;80.30;6.20;96928.00;;;;5057456;28;20287;-87
2022/12/28 06:49:38;;;;;;;5.77;2.90;;;6.30;80.30;6.20;96926.00;;;;5058169;28;20667;-87
2022/12/28 06:52:05;;;;;;;7.67;2.53;;;6.40;80.40;6.20;96920.00;;;;5056106;28;20678;-87
2022/12/28 06:54:32;;;;;;;4.63;2.90;;;6.40;80.30;6.30;96921.00;;;;5057275;28;20255;-87
2022/12/28 06:57:00;;;;;;;8.90;2.83;;;6.40;80.30;6.30;96926.00;;;;5058603;28;20653;-86
2022/12/28 06:59:28;;;;;;;5.17;2.47;;;6.50;80.30;6.40;96921.00;;;;5055704;28;20611;-86
2022/12/28 07:01:55;;;;;;;2.50;2.20;;;6.50;80.30;6.40;96923.00;;;;5055955;28;20651;-86
2022/12/28 07:04:22;;;;;;;5.13;2.10;;;6.50;80.20;6.40;96927.00;;;;5058224;28;20775;-87
2022/12/28 07:06:49;;;;;;;1.90;1.80;;;6.60;80.30;6.40;96921.00;;;;5054026;28;20284;-86
2022/12/28 07:09:16;;;;;;;5.73;2.67;;;6.60;80.30;6.50;96924.00;;;;5057787;28;20295;-86
2022/12/28 07:11:44;;;;;;;3.63;1.83;;;6.60;80.20;6.50;96920.00;;;;5057574;28;20315;-87
2022/12/28 07:14:13;;;;;;;1.73;1.63;;;6.70;80.20;6.50;96922.00;;;;5057299;28;20733;-86
2022/12/28 07:16:40;;;;;;;3.87;2.07;;;6.70;80.20;6.60;96922.00;;;;5054545;28;20247;-86
2022/12/28 07:19:08;;;;;;;2.33;1.97;;;6.70;80.10;6.60;96926.00;;;;5055650;28;20204;-87
2022/12/28 07:21:37;;;;;;;4.00;2.37;;;6.70;80.10;6.60;96924.00;;;;5056326;28;20682;-87
2022/12/28 07:24:06;;;;;;;3.00;2.70;;;6.80;80.20;6.70;96924.00;;;;5055462;28;20222;-86
2022/12/28 07:26:36;;;;;;;5.50;2.90;;;6.70;80.10;6.70;96920.00;;;;5056002;28;20214;-86
2022/12/28 07:29:06;;;;;;;7.67;3.57;;;6.80;80.20;6.70;96929.00;;;;5057040;28;20287;-87
2022/12/28 07:31:38;;;;;;;3.37;2.90;;;6.80;80.20;6.70;96928.00;;;;5055539;28;20283;-87
2022/12/28 07:34:05;;;;;;;2.90;2.57;;;6.80;80.10;6.80;96933.00;;;;5057168;28;20778;-86
2022/12/28 07:36:33;;;;;;;9.00;2.40;;;6.90;80.10;6.80;96936.00;;;;5054797;28;20226;-86
2022/12/28 07:39:01;;;;;;;8.40;2.27;;;6.90;80.10;6.80;96932.00;;;;5054157;28;20224;-86
2022/12/28 07:41:31;;;;;;;4.23;2.23;;;7.00;80.20;6.90;96934.00;;;;5053687;28;20314;-87
2022/12/28 07:43:59;;;;;;;7.47;2.40;;;7.00;80.10;6.90;96931.00;;;;5056209;28;20228;-87
2022/12/28 07:46:29;;;;;;;6.50;1.97;;;7.00;80.10;6.90;96939.00;;;;5055408;28;20196;-87
2022/12/28 07:48:59;;;;;;;3.47;1.73;;;7.00;80.10;7.00;96932.00;;;;5055634;28;20188;-86
2022/12/28 07:51:29;;;;;;;4.60;2.00;;;7.10;80.10;7.00;96937.00;;;;5058466;28;20207;-89
2022/12/28 07:53:59;;;;;;;7.20;2.80;;;7.10;80.00;7.00;96932.00;;;;5064748;28;20251;-89
2022/12/28 07:56:28;;;;;;;4.70;2.67;;;7.10;80.10;7.10;96929.00;;;;5066119;28;20307;-90
2022/12/28 07:58:58;;;;;;;3.37;2.60;;;7.30;80.20;7.10;96928.00;;;;5063733;28;20254;-88
2022/12/28 08:01:28;;;;;;;4.33;2.90;;;7.20;80.10;7.20;96928.00;;;;5065045;28;20291;-89
2022/12/28 08:03:59;;;;;;;3.43;2.90;;;7.20;80.70;7.30;96927.00;;;;5065067;28;20328;-89
2022/12/28 08:06:29;;;;;;;2.73;2.53;;;7.30;80.00;7.30;96921.00;;;;5062374;28;20275;-88
2022/12/28 08:09:00;;;;;;;4.37;2.40;;;7.30;79.90;7.40;96926.00;;;;5062999;28;20308;-89
2022/12/28 08:11:30;;;;;;;5.57;2.57;;;7.40;80.00;7.40;96918.00;;;;5060532;28;20897;-89
2022/12/28 08:13:58;;;;;;;3.43;2.50;;;7.40;79.90;7.50;96917.00;;;;5062392;28;20294;-88
2022/12/28 08:16:28;;;;;;;2.93;2.70;;;7.40;80.00;7.50;96915.00;;;;5061803;28;20250;-87
2022/12/28 08:18:57;;;;;;;3.20;2.13;;;7.50;79.90;7.60;96911.00;;;;5058715;28;20287;-88
2022/12/28 08:21:27;;;;;;;7.30;2.70;;;7.50;79.80;7.60;96918.00;;;;5059580;28;20232;-90
2022/12/28 08:23:54;;;;;;;6.47;2.67;;;7.60;79.90;7.70;96910.00;;;;5062851;28;20230;-91
2022/12/28 08:26:25;;;;;;;2.63;2.43;;;7.60;79.90;7.70;96915.00;;;;5064722;28;20214;-89
2022/12/28 08:28:56;;;;;;;2.57;2.37;;;7.60;79.90;7.80;96917.00;;;;5066228;28;20727;-89
2022/12/28 08:31:27;;;;;;;4.17;2.37;;;7.70;80.00;7.80;96910.00;;;;5060790;28;20261;-90
2022/12/28 08:33:57;;;;;;;2.27;2.00;;;7.70;80.00;7.90;96919.00;;;;5064372;28;20212;-89
2022/12/28 08:36:25;;;;;;;2.07;1.90;;;7.80;80.00;7.90;96923.00;;;;5071272;28;20247;-88
2022/12/28 08:38:56;;;;;;;2.13;2.03;;;7.80;80.00;8.00;96928.00;;;;5056103;28;20288;-88
2022/12/28 08:41:26;;;;;;;2.43;2.23;;;7.90;80.00;8.10;96926.00;;;;5056098;28;20212;-88
2022/12/28 08:46:39;;;;;;;7.63;2.67;;;8.00;79.90;8.10;96920.00;;;;5073538;28;20195;-89
2022/12/28 08:49:07;;;;;;;7.13;2.10;;;8.00;79.80;8.20;96928.00;;;;5059574;28;20208;-89
2022/12/28 08:51:38;;;;;;;4.23;2.20;;;8.00;79.70;8.20;96918.00;;;;5060695;28;20312;-87
2022/12/28 08:54:06;;;;;;;4.57;1.97;;;8.10;79.70;8.20;96916.00;;;;5067620;28;20299;-88
2022/12/28 08:56:37;;;;;;;7.50;2.37;;;8.10;79.60;8.20;96908.00;;;;5059818;28;20288;-88
2022/12/28 08:59:05;;;;;;;2.20;1.70;;;8.20;79.60;8.30;96914.00;;;;5064320;28;20679;-89
2022/12/28 09:01:35;;;;;;;3.40;2.50;;;8.20;79.60;8.30;96901.00;;;;5063766;28;20297;-89
2022/12/28 09:04:03;;;;;;;4.27;2.33;;;8.30;79.60;8.40;96906.00;;;;5062756;28;20243;-89
2022/12/28 09:06:36;;;;;;;2.30;2.10;;;8.30;80.20;8.40;96897.00;;;;5066038;28;20710;-88
2022/12/28 09:09:06;;;;;;;3.00;2.63;;;8.30;79.40;8.40;96898.00;;;;5062608;28;20835;-88
2022/12/28 09:11:34;;;;;;;4.43;2.83;;;8.40;79.50;8.50;96902.00;;;;5072442;28;20668;-89
2022/12/28 09:14:02;;;;;;;4.37;3.30;;;8.50;79.70;8.60;96902.00;;;;5074104;28;20246;-89
2022/12/28 09:16:29;;;;;;;5.43;4.23;;;8.40;79.60;8.60;96893.00;;;;5056650;28;20197;-89
2022/12/28 09:18:59;;;;;;;6.20;4.20;;;8.40;79.70;8.70;96892.00;;;;5058528;28;20311;-89
2022/12/28 09:21:29;;;;;;;5.33;3.83;;;8.50;79.80;8.70;96901.00;;;;5057642;28;20209;-88
2022/12/28 09:23:59;;;;;;;6.47;3.80;;;8.60;80.00;8.80;96895.00;;;;5062353;28;20232;-90
2022/12/28 09:26:29;;;;;;;5.83;3.43;;;8.70;80.00;8.90;96896.00;;;;5059215;28;20242;-88
2022/12/28 09:28:58;;;;;;;3.73;3.37;;;8.70;80.00;8.90;96891.00;;;;5061407;28;20214;-91
2022/12/28 09:31:29;;;;;;;3.83;3.23;;;8.70;80.00;9.00;96900.00;;;;5064216;28;20294;-88
2022/12/28 09:34:00;;;;;;;5.80;3.60;;;8.80;80.00;9.00;96893.00;;;;5060622;28;20304;-88
2022/12/28 09:36:30;;;;;;;5.10;2.97;;;8.80;80.00;9.10;96890.00;;;;5059148;28;20189;-88
2022/12/28 09:39:01;;;;;;;3.07;2.80;;;8.90;80.10;9.20;96888.00;;;;5059647;28;20263;-89
2022/12/28 09:41:33;;;;;;;3.03;2.60;;;9.00;80.10;9.30;96889.00;;;;5062412;28;20286;-89
2022/12/28 09:44:38;;;;;;;2.43;2.23;;;9.00;80.20;9.30;96885.00;;;;5057000;28;20295;-89
2022/12/28 09:47:22;;;;;;;3.10;2.10;;;9.10;79.60;9.40;96879.00;;;;5001844;28;20213;-89
2022/12/28 09:50:23;;;;;;;2.50;2.00;;;9.20;80.20;9.60;96884.00;;;;5061431;28;20285;-89
2022/12/28 09:53:05;;;;;;;2.10;1.80;;;9.30;80.20;9.70;96882.00;;;;5060587;28;20196;-89
2022/12/28 09:55:36;;;;;;;1.80;1.70;;;9.40;80.20;9.80;96874.00;;;;5062265;28;20232;-89
2022/12/28 09:58:14;;;;;;;2.13;1.70;;;9.50;80.40;9.90;96882.00;;;;5060825;28;20212;-90
2022/12/28 10:00:45;;;;;;;3.20;1.60;;;9.50;80.50;10.00;96876.00;;;;5063171;28;20208;-90
2022/12/28 10:03:20;;;;;;;2.13;1.93;;;9.60;80.60;10.10;96871.00;;;;5060061;28;20633;-89
2022/12/28 10:05:49;;;;;;;4.67;2.23;;;9.70;80.60;10.20;96870.00;;;;5056632;28;20253;-88
2022/12/28 10:08:21;;;;;;;5.03;3.23;;;9.90;80.80;10.30;96862.00;;;;5073431;28;20212;-90
2022/12/28 10:10:52;;;;;;;4.47;3.07;;;9.90;80.70;10.40;96863.00;;;;5058330;28;20232;-89
2022/12/28 10:13:23;;;;;;;5.57;2.83;;;10.00;80.60;10.40;96862.00;;;;5060965;28;20311;-89
2022/12/28 10:15:52;;;;;;;3.17;2.80;;;10.10;80.60;10.50;96861.00;;;;5060342;28;20200;-91
2022/12/28 10:18:25;;;;;;;4.33;2.60;;;10.20;80.70;10.60;96850.00;;;;5064083;28;20243;-89
2022/12/28 10:20:54;;;;;;;2.53;2.13;;;10.30;81.00;10.80;96847.00;;;;5070578;28;20235;-90
2022/12/28 10:23:26;;;;;;;7.17;4.23;;;10.40;81.40;10.90;96853.00;;;;5062027;28;20303;-89
2022/12/28 10:25:58;;;;;;;10.50;6.27;;;10.50;81.50;11.00;96841.00;;;;5059756;28;20239;-90
2022/12/28 10:28:33;;;;;;;9.60;6.07;;;10.70;81.60;11.10;96838.00;;;;5058698;28;20227;-90
2022/12/28 10:31:05;;;;;;;4.00;3.23;;;10.80;81.40;11.20;96842.00;;;;5060785;28;20204;-90
2022/12/28 10:33:37;;;;;;;3.67;2.53;;;10.90;81.10;11.30;96836.00;;;;5063813;28;20255;-89
2022/12/28 10:36:04;;;;;;;4.93;4.33;;;11.00;81.00;11.40;96829.00;;;;5061422;28;20665;-91
2022/12/28 10:38:34;;;;;;;3.50;3.20;;;11.10;80.60;11.40;96836.00;;;;5053410;28;20304;-91
2022/12/28 10:41:06;;;;;;;3.43;3.13;;;11.20;79.80;11.50;96827.00;;;;5053401;28;20575;-90
2022/12/28 10:43:37;;;;;;;2.30;2.10;;;11.30;80.20;11.60;96822.00;;;;5068957;28;20306;-90
2022/12/28 10:46:13;;;;;;;2.40;1.60;;;11.40;79.20;11.70;96824.00;;;;5072227;28;20204;-90
2022/12/28 10:48:47;;;;;;;2.00;1.67;;;11.50;79.00;11.80;96818.00;;;;5055005;28;20287;-89
2022/12/28 10:51:17;;;;;;;1.97;1.20;;;11.60;78.20;11.90;96816.00;;;;5060377;28;20200;-90
2022/12/28 10:53:47;;;;;;;1.07;0.97;;;11.60;78.20;11.90;96818.00;;;;5067854;28;20313;-90
2022/12/28 10:56:25;;;;;;;1.57;0.90;;;11.70;78.10;12.00;96818.00;;;;5092406;28;20191;-91
2022/12/28 10:58:54;;;;;;;0.97;0.70;;;11.80;77.60;12.10;96809.00;;;;5092477;28;20234;-91
2022/12/28 11:01:27;;;;;;;1.10;0.80;;;11.80;77.90;12.10;96800.00;;;;5093692;28;20203;-90
2022/12/28 11:04:05;;;;;;;0.67;0.67;;;11.90;77.40;12.20;96799.00;;;;5096752;28;20221;-90
2022/12/28 11:06:35;;;;;;;1.77;0.60;;;12.00;76.70;12.20;96795.00;;;;5090203;28;20221;-90
2022/12/28 11:09:18;;;;;;;1.13;1.03;;;12.00;76.90;12.20;96790.00;;;;5082642;28;20211;-90
2022/12/28 11:11:49;;;;;;;0.90;0.90;;;12.10;75.50;12.20;96801.00;;;;5070757;28;20477;-90
2022/12/28 11:14:30;;;;;;;1.17;0.83;;;12.10;76.10;12.30;96796.00;;;;5075199;28;20319;-90
2022/12/28 11:16:57;;;;;;;0.67;0.67;;;12.10;75.90;12.30;96782.00;;;;5069525;28;20213;-90
2022/12/28 11:19:26;;;;;;;0.90;0.90;;;12.20;76.40;12.30;96782.00;;;;5067578;28;20316;-90
2022/12/28 11:21:53;;;;;;;1.17;0.97;;;12.20;75.50;12.30;96783.00;;;;5068389;28;20772;-89
2022/12/28 11:24:28;;;;;;;1.00;0.90;;;12.20;75.30;12.30;96775.00;;;;5068775;28;20217;-91
2022/12/28 11:26:58;;;;;;;0.77;0.77;;;12.20;74.30;12.40;96779.00;;;;5081112;28;20196;-91
2022/12/28 11:29:25;;;;;;;0.70;0.70;;;12.30;74.80;12.40;96780.00;;;;5068270;28;20200;-89
2022/12/28 11:32:00;;;;;;;0.90;0.50;;;12.30;74.80;12.40;96776.00;;;;5057148;28;20215;-90
2022/12/28 11:34:31;;;;;;;1.03;0.60;;;12.30;74.50;12.40;96772.00;;;;5072933;28;20762;-90
2022/12/28 11:36:59;;;;;;;0.57;0.47;;;12.30;74.40;12.40;96772.00;;;;5073081;28;20215;-90
2022/12/28 11:39:45;;;;;;;1.07;0.80;;;12.40;74.50;12.50;96772.00;;;;5069358;28;20250;-90
2022/12/28 11:42:54;;;;;;;1.20;0.87;;;12.40;72.90;12.50;96763.00;;;;5067886;28;20337;-90
2022/12/28 11:45:52;;;;;;;2.20;0.77;;;12.40;72.30;12.50;96766.00;;;;5056029;28;20287;-92
2022/12/28 11:48:57;;;;;;;0.40;0.40;;;12.50;73.40;12.60;96770.00;;;;5059075;28;20235;-90